sensor_id;sensor_type;location;lat;lon;timestamp;temperature;humidity
43346;DHT22;28937;51.160;4.146;2023-02-28T00:01:22;8.10;76.60
43346;DHT22;28937;51.160;4.146;2023-02-28T00:03:48;8.10;76.90
43346;DHT22;28937;51.160;4.146;2023-02-28T00:06:14;8.00;77.00
43346;DHT22;28937;51.160;4.146;2023-02-28T00:08:40;8.00;77.00
43346;DHT22;28937;51.160;4.146;2023-02-28T00:11:08;8.00;77.00
43346;DHT22;28937;51.160;4.146;2023-02-28T00:13:36;8.00;77.00
43346;DHT22;28937;51.160;4.146;2023-02-28T00:16:10;7.90;77.20
43346;DHT22;28937;51.160;4.146;2023-02-28T00:18:37;7.90;77.20
43346;DHT22;28937;51.160;4.146;2023-02-28T00:21:03;8.00;77.30
43346;DHT22;28937;51.160;4.146;2023-02-28T00:23:28;7.90;77.50
43346;DHT22;28937;51.160;4.146;2023-02-28T00:25:54;7.90;77.50
43346;DHT22;28937;51.160;4.146;2023-02-28T00:28:20;7.90;77.30
43346;DHT22;28937;51.160;4.146;2023-02-28T00:30:46;7.90;77.80
43346;DHT22;28937;51.160;4.146;2023-02-28T00:33:12;7.90;77.80
43346;DHT22;28937;51.160;4.146;2023-02-28T00:35:37;7.90;77.90
43346;DHT22;28937;51.160;4.146;2023-02-28T00:38:03;7.90;77.90
43346;DHT22;28937;51.160;4.146;2023-02-28T00:40:29;7.80;77.90
43346;DHT22;28937;51.160;4.146;2023-02-28T00:42:55;7.90;77.70
43346;DHT22;28937;51.160;4.146;2023-02-28T00:45:21;7.90;77.80
43346;DHT22;28937;51.160;4.146;2023-02-28T00:47:46;7.80;77.80
43346;DHT22;28937;51.160;4.146;2023-02-28T00:50:16;7.80;78.10
43346;DHT22;28937;51.160;4.146;2023-02-28T00:52:42;7.80;78.40
43346;DHT22;28937;51.160;4.146;2023-02-28T00:55:08;7.80;78.40
43346;DHT22;28937;51.160;4.146;2023-02-28T00:57:33;7.70;78.40
43346;DHT22;28937;51.160;4.146;2023-02-28T00:59:59;7.80;78.30
43346;DHT22;28937;51.160;4.146;2023-02-28T01:02:24;7.70;78.60
43346;DHT22;28937;51.160;4.146;2023-02-28T01:04:50;7.70;78.70
43346;DHT22;28937;51.160;4.146;2023-02-28T01:07:16;7.70;78.60
43346;DHT22;28937;51.160;4.146;2023-02-28T01:09:41;7.70;78.70
43346;DHT22;28937;51.160;4.146;2023-02-28T01:12:08;7.70;78.80
43346;DHT22;28937;51.160;4.146;2023-02-28T01:14:34;7.70;78.60
43346;DHT22;28937;51.160;4.146;2023-02-28T01:17:01;7.70;78.70
43346;DHT22;28937;51.160;4.146;2023-02-28T01:19:26;7.60;78.60
43346;DHT22;28937;51.160;4.146;2023-02-28T01:21:52;7.60;78.80
43346;DHT22;28937;51.160;4.146;2023-02-28T01:24:17;7.60;78.90
43346;DHT22;28937;51.160;4.146;2023-02-28T01:26:43;7.60;79.00
43346;DHT22;28937;51.160;4.146;2023-02-28T01:29:09;7.60;79.10
43346;DHT22;28937;51.160;4.146;2023-02-28T01:31:34;7.60;78.90
43346;DHT22;28937;51.160;4.146;2023-02-28T01:34:00;7.60;79.90
43346;DHT22;28937;51.160;4.146;2023-02-28T01:36:26;7.60;79.40
43346;DHT22;28937;51.160;4.146;2023-02-28T01:38:52;7.50;79.60
43346;DHT22;28937;51.160;4.146;2023-02-28T01:41:26;7.60;79.40
43346;DHT22;28937;51.160;4.146;2023-02-28T01:43:58;7.60;79.30
43346;DHT22;28937;51.160;4.146;2023-02-28T01:46:24;7.60;79.30
43346;DHT22;28937;51.160;4.146;2023-02-28T01:49:09;7.60;79.50
43346;DHT22;28937;51.160;4.146;2023-02-28T01:51:42;7.50;79.40
43346;DHT22;28937;51.160;4.146;2023-02-28T01:54:18;7.50;79.70
43346;DHT22;28937;51.160;4.146;2023-02-28T01:56:54;7.50;79.60
43346;DHT22;28937;51.160;4.146;2023-02-28T01:59:31;7.50;79.60
43346;DHT22;28937;51.160;4.146;2023-02-28T02:01:58;7.50;79.60
43346;DHT22;28937;51.160;4.146;2023-02-28T02:04:30;7.40;79.80
43346;DHT22;28937;51.160;4.146;2023-02-28T02:06:59;7.40;79.90
43346;DHT22;28937;51.160;4.146;2023-02-28T02:09:25;7.40;79.90
43346;DHT22;28937;51.160;4.146;2023-02-28T02:11:50;7.40;80.10
43346;DHT22;28937;51.160;4.146;2023-02-28T02:14:34;7.40;80.60
43346;DHT22;28937;51.160;4.146;2023-02-28T02:17:32;7.40;80.00
43346;DHT22;28937;51.160;4.146;2023-02-28T02:20:38;7.40;80.00
43346;DHT22;28937;51.160;4.146;2023-02-28T02:23:33;7.40;80.10
43346;DHT22;28937;51.160;4.146;2023-02-28T02:42:41;7.30;79.80
43346;DHT22;28937;51.160;4.146;2023-02-28T02:45:21;7.30;80.00
43346;DHT22;28937;51.160;4.146;2023-02-28T02:47:49;7.30;79.80
43346;DHT22;28937;51.160;4.146;2023-02-28T02:50:26;7.30;79.80
43346;DHT22;28937;51.160;4.146;2023-02-28T02:52:58;7.20;79.70
43346;DHT22;28937;51.160;4.146;2023-02-28T02:55:28;7.30;80.00
43346;DHT22;28937;51.160;4.146;2023-02-28T02:58:01;7.20;80.10
43346;DHT22;28937;51.160;4.146;2023-02-28T03:00:35;7.20;80.10
43346;DHT22;28937;51.160;4.146;2023-02-28T03:03:03;7.20;80.00
43346;DHT22;28937;51.160;4.146;2023-02-28T03:05:39;7.20;80.20
43346;DHT22;28937;51.160;4.146;2023-02-28T03:08:07;7.20;80.20
43346;DHT22;28937;51.160;4.146;2023-02-28T03:10:37;7.10;80.40
43346;DHT22;28937;51.160;4.146;2023-02-28T03:16:06;7.20;80.40
43346;DHT22;28937;51.160;4.146;2023-02-28T03:18:58;7.10;80.40
43346;DHT22;28937;51.160;4.146;2023-02-28T03:22:01;7.20;80.30
43346;DHT22;28937;51.160;4.146;2023-02-28T03:24:32;7.10;80.60
43346;DHT22;28937;51.160;4.146;2023-02-28T03:27:15;7.10;81.00
43346;DHT22;28937;51.160;4.146;2023-02-28T03:29:56;7.10;80.80
43346;DHT22;28937;51.160;4.146;2023-02-28T03:32:31;7.10;81.10
43346;DHT22;28937;51.160;4.146;2023-02-28T03:35:08;7.10;81.10
43346;DHT22;28937;51.160;4.146;2023-02-28T03:37:37;7.10;81.00
43346;DHT22;28937;51.160;4.146;2023-02-28T03:40:11;7.00;81.10
43346;DHT22;28937;51.160;4.146;2023-02-28T03:42:40;7.00;81.20
43346;DHT22;28937;51.160;4.146;2023-02-28T03:45:26;7.00;81.20
43346;DHT22;28937;51.160;4.146;2023-02-28T03:47:57;7.00;81.40
43346;DHT22;28937;51.160;4.146;2023-02-28T03:50:35;7.00;82.00
43346;DHT22;28937;51.160;4.146;2023-02-28T03:53:19;7.10;81.70
43346;DHT22;28937;51.160;4.146;2023-02-28T03:55:56;7.10;81.60
43346;DHT22;28937;51.160;4.146;2023-02-28T03:58:38;7.10;81.50
43346;DHT22;28937;51.160;4.146;2023-02-28T04:01:31;7.10;81.30
43346;DHT22;28937;51.160;4.146;2023-02-28T04:03:59;7.10;81.40
43346;DHT22;28937;51.160;4.146;2023-02-28T04:06:25;7.00;81.60
43346;DHT22;28937;51.160;4.146;2023-02-28T04:08:51;7.00;81.80
43346;DHT22;28937;51.160;4.146;2023-02-28T04:11:27;7.00;82.20
43346;DHT22;28937;51.160;4.146;2023-02-28T04:13:55;7.00;82.30
43346;DHT22;28937;51.160;4.146;2023-02-28T04:16:21;7.00;82.20
43346;DHT22;28937;51.160;4.146;2023-02-28T04:18:46;7.00;82.30
43346;DHT22;28937;51.160;4.146;2023-02-28T04:21:12;7.00;82.30
43346;DHT22;28937;51.160;4.146;2023-02-28T04:23:39;7.00;82.20
43346;DHT22;28937;51.160;4.146;2023-02-28T04:26:04;7.00;82.30
43346;DHT22;28937;51.160;4.146;2023-02-28T04:28:31;7.00;82.30
43346;DHT22;28937;51.160;4.146;2023-02-28T04:31:02;7.00;82.30
43346;DHT22;28937;51.160;4.146;2023-02-28T04:33:28;7.00;82.30
43346;DHT22;28937;51.160;4.146;2023-02-28T04:36:07;7.00;82.60
43346;DHT22;28937;51.160;4.146;2023-02-28T04:38:38;7.00;82.60
43346;DHT22;28937;51.160;4.146;2023-02-28T04:41:04;7.00;82.80
43346;DHT22;28937;51.160;4.146;2023-02-28T04:43:31;7.00;82.80
43346;DHT22;28937;51.160;4.146;2023-02-28T04:45:57;7.00;82.80
43346;DHT22;28937;51.160;4.146;2023-02-28T04:48:24;7.00;82.80
43346;DHT22;28937;51.160;4.146;2023-02-28T04:50:51;7.00;83.10
43346;DHT22;28937;51.160;4.146;2023-02-28T04:53:17;7.10;83.10
43346;DHT22;28937;51.160;4.146;2023-02-28T04:55:43;7.00;83.30
43346;DHT22;28937;51.160;4.146;2023-02-28T04:58:08;7.00;83.20
43346;DHT22;28937;51.160;4.146;2023-02-28T05:00:34;7.00;83.40
43346;DHT22;28937;51.160;4.146;2023-02-28T05:03:00;7.10;83.60
43346;DHT22;28937;51.160;4.146;2023-02-28T05:05:26;7.00;83.50
43346;DHT22;28937;51.160;4.146;2023-02-28T05:07:51;7.00;83.80
43346;DHT22;28937;51.160;4.146;2023-02-28T05:10:18;7.00;83.90
43346;DHT22;28937;51.160;4.146;2023-02-28T05:12:44;7.00;83.50
43346;DHT22;28937;51.160;4.146;2023-02-28T05:15:14;7.00;83.80
43346;DHT22;28937;51.160;4.146;2023-02-28T05:17:40;7.00;84.20
43346;DHT22;28937;51.160;4.146;2023-02-28T05:20:07;7.00;84.20
43346;DHT22;28937;51.160;4.146;2023-02-28T05:22:36;7.00;84.10
43346;DHT22;28937;51.160;4.146;2023-02-28T05:25:03;7.00;84.20
43346;DHT22;28937;51.160;4.146;2023-02-28T05:27:28;7.00;84.30
43346;DHT22;28937;51.160;4.146;2023-02-28T05:29:54;7.00;84.40
43346;DHT22;28937;51.160;4.146;2023-02-28T05:32:20;7.00;84.60
43346;DHT22;28937;51.160;4.146;2023-02-28T05:34:45;7.00;84.60
43346;DHT22;28937;51.160;4.146;2023-02-28T05:37:13;7.00;84.80
43346;DHT22;28937;51.160;4.146;2023-02-28T05:39:39;7.10;84.70
43346;DHT22;28937;51.160;4.146;2023-02-28T05:42:05;7.10;85.50
43346;DHT22;28937;51.160;4.146;2023-02-28T05:44:30;7.00;85.20
43346;DHT22;28937;51.160;4.146;2023-02-28T05:46:56;7.10;84.40
43346;DHT22;28937;51.160;4.146;2023-02-28T05:49:22;7.10;84.60
43346;DHT22;28937;51.160;4.146;2023-02-28T05:51:47;7.10;84.70
43346;DHT22;28937;51.160;4.146;2023-02-28T05:54:13;7.10;84.70
43346;DHT22;28937;51.160;4.146;2023-02-28T05:56:39;7.10;85.00
43346;DHT22;28937;51.160;4.146;2023-02-28T05:59:06;7.10;84.50
43346;DHT22;28937;51.160;4.146;2023-02-28T06:04:21;7.10;84.50
43346;DHT22;28937;51.160;4.146;2023-02-28T06:06:48;7.10;84.60
43346;DHT22;28937;51.160;4.146;2023-02-28T06:09:14;7.10;84.60
43346;DHT22;28937;51.160;4.146;2023-02-28T06:11:41;7.10;85.00
43346;DHT22;28937;51.160;4.146;2023-02-28T06:14:06;7.10;84.70
43346;DHT22;28937;51.160;4.146;2023-02-28T06:16:34;7.10;84.70
43346;DHT22;28937;51.160;4.146;2023-02-28T06:19:02;7.10;85.30
43346;DHT22;28937;51.160;4.146;2023-02-28T06:21:28;7.10;84.90
43346;DHT22;28937;51.160;4.146;2023-02-28T06:23:55;7.10;84.70
43346;DHT22;28937;51.160;4.146;2023-02-28T06:26:21;7.10;84.80
43346;DHT22;28937;51.160;4.146;2023-02-28T06:28:47;7.10;85.10
43346;DHT22;28937;51.160;4.146;2023-02-28T06:31:15;7.10;85.10
43346;DHT22;28937;51.160;4.146;2023-02-28T06:33:42;7.10;85.70
43346;DHT22;28937;51.160;4.146;2023-02-28T06:36:09;7.20;86.40
43346;DHT22;28937;51.160;4.146;2023-02-28T06:38:35;7.20;84.50
43346;DHT22;28937;51.160;4.146;2023-02-28T06:41:01;7.20;85.10
43346;DHT22;28937;51.160;4.146;2023-02-28T06:43:29;7.30;85.40
43346;DHT22;28937;51.160;4.146;2023-02-28T06:46:00;7.30;83.70
43346;DHT22;28937;51.160;4.146;2023-02-28T06:48:27;7.30;83.30
43346;DHT22;28937;51.160;4.146;2023-02-28T06:51:00;7.40;83.00
43346;DHT22;28937;51.160;4.146;2023-02-28T06:53:26;7.30;83.00
43346;DHT22;28937;51.160;4.146;2023-02-28T06:55:52;7.30;83.50
43346;DHT22;28937;51.160;4.146;2023-02-28T06:58:17;7.20;83.20
43346;DHT22;28937;51.160;4.146;2023-02-28T07:00:45;7.30;82.90
43346;DHT22;28937;51.160;4.146;2023-02-28T07:03:12;7.30;82.90
43346;DHT22;28937;51.160;4.146;2023-02-28T07:05:39;7.30;83.50
43346;DHT22;28937;51.160;4.146;2023-02-28T07:08:05;7.20;85.30
43346;DHT22;28937;51.160;4.146;2023-02-28T07:10:32;7.20;83.70
43346;DHT22;28937;51.160;4.146;2023-02-28T07:12:59;7.30;83.50
43346;DHT22;28937;51.160;4.146;2023-02-28T07:15:25;7.20;84.30
43346;DHT22;28937;51.160;4.146;2023-02-28T07:17:50;7.20;83.80
43346;DHT22;28937;51.160;4.146;2023-02-28T07:20:17;7.20;84.40
43346;DHT22;28937;51.160;4.146;2023-02-28T07:22:42;7.30;84.20
43346;DHT22;28937;51.160;4.146;2023-02-28T07:25:09;7.20;84.10
43346;DHT22;28937;51.160;4.146;2023-02-28T07:27:34;7.30;84.30
43346;DHT22;28937;51.160;4.146;2023-02-28T07:30:00;7.30;84.60
43346;DHT22;28937;51.160;4.146;2023-02-28T07:32:29;7.30;84.30
43346;DHT22;28937;51.160;4.146;2023-02-28T07:34:55;7.30;84.40
43346;DHT22;28937;51.160;4.146;2023-02-28T07:37:20;7.30;83.90
43346;DHT22;28937;51.160;4.146;2023-02-28T07:39:46;7.30;83.50
43346;DHT22;28937;51.160;4.146;2023-02-28T07:42:11;7.30;83.40
43346;DHT22;28937;51.160;4.146;2023-02-28T07:44:39;7.30;83.50
43346;DHT22;28937;51.160;4.146;2023-02-28T07:47:09;7.40;83.10
43346;DHT22;28937;51.160;4.146;2023-02-28T07:49:36;7.30;83.50
43346;DHT22;28937;51.160;4.146;2023-02-28T07:52:03;7.40;82.40
43346;DHT22;28937;51.160;4.146;2023-02-28T07:54:29;7.40;82.60
43346;DHT22;28937;51.160;4.146;2023-02-28T07:56:54;7.30;82.10
43346;DHT22;28937;51.160;4.146;2023-02-28T07:59:20;7.40;81.80
43346;DHT22;28937;51.160;4.146;2023-02-28T08:01:45;7.40;81.70
43346;DHT22;28937;51.160;4.146;2023-02-28T08:04:11;7.50;81.20
43346;DHT22;28937;51.160;4.146;2023-02-28T08:06:37;7.40;81.20
43346;DHT22;28937;51.160;4.146;2023-02-28T08:09:02;7.40;81.90
43346;DHT22;28937;51.160;4.146;2023-02-28T08:11:28;7.50;81.00
43346;DHT22;28937;51.160;4.146;2023-02-28T08:13:54;7.50;80.70
43346;DHT22;28937;51.160;4.146;2023-02-28T08:16:20;7.50;80.50
43346;DHT22;28937;51.160;4.146;2023-02-28T08:18:51;7.50;80.70
43346;DHT22;28937;51.160;4.146;2023-02-28T08:21:17;7.60;80.00
43346;DHT22;28937;51.160;4.146;2023-02-28T08:23:43;7.60;79.80
43346;DHT22;28937;51.160;4.146;2023-02-28T08:26:09;7.70;79.20
43346;DHT22;28937;51.160;4.146;2023-02-28T08:28:35;7.70;79.40
43346;DHT22;28937;51.160;4.146;2023-02-28T08:31:00;7.70;79.10
43346;DHT22;28937;51.160;4.146;2023-02-28T08:33:27;7.60;78.90
43346;DHT22;28937;51.160;4.146;2023-02-28T08:35:56;7.60;79.10
43346;DHT22;28937;51.160;4.146;2023-02-28T08:38:23;7.70;79.10
43346;DHT22;28937;51.160;4.146;2023-02-28T08:40:49;7.70;79.10
43346;DHT22;28937;51.160;4.146;2023-02-28T08:43:14;7.90;77.90
43346;DHT22;28937;51.160;4.146;2023-02-28T08:45:40;7.90;77.00
43346;DHT22;28937;51.160;4.146;2023-02-28T08:48:06;7.80;76.60
43346;DHT22;28937;51.160;4.146;2023-02-28T08:50:31;7.90;76.50
43346;DHT22;28937;51.160;4.146;2023-02-28T08:52:57;7.80;76.10
43346;DHT22;28937;51.160;4.146;2023-02-28T08:55:23;7.90;76.10
43346;DHT22;28937;51.160;4.146;2023-02-28T08:57:49;7.90;75.10
43346;DHT22;28937;51.160;4.146;2023-02-28T09:00:14;7.90;74.90
43346;DHT22;28937;51.160;4.146;2023-02-28T09:02:41;7.90;74.20
43346;DHT22;28937;51.160;4.146;2023-02-28T09:05:08;7.80;74.20
43346;DHT22;28937;51.160;4.146;2023-02-28T09:07:33;7.80;73.70
43346;DHT22;28937;51.160;4.146;2023-02-28T09:09:59;7.90;71.90
43346;DHT22;28937;51.160;4.146;2023-02-28T09:12:26;8.00;71.50
43346;DHT22;28937;51.160;4.146;2023-02-28T09:14:53;8.00;72.20
43346;DHT22;28937;51.160;4.146;2023-02-28T09:17:20;8.00;72.10
43346;DHT22;28937;51.160;4.146;2023-02-28T09:19:47;7.90;72.80
43346;DHT22;28937;51.160;4.146;2023-02-28T09:22:13;8.10;70.30
43346;DHT22;28937;51.160;4.146;2023-02-28T09:24:39;8.10;69.20
43346;DHT22;28937;51.160;4.146;2023-02-28T09:27:05;8.10;69.20
43346;DHT22;28937;51.160;4.146;2023-02-28T09:29:32;8.00;69.90
43346;DHT22;28937;51.160;4.146;2023-02-28T09:31:57;8.10;69.20
43346;DHT22;28937;51.160;4.146;2023-02-28T09:34:24;8.10;69.40
43346;DHT22;28937;51.160;4.146;2023-02-28T09:36:50;8.10;69.60
43346;DHT22;28937;51.160;4.146;2023-02-28T09:39:20;8.20;68.30
43346;DHT22;28937;51.160;4.146;2023-02-28T09:41:48;8.20;67.00
43346;DHT22;28937;51.160;4.146;2023-02-28T09:44:42;8.20;64.70
43346;DHT22;28937;51.160;4.146;2023-02-28T09:47:25;8.20;66.40
43346;DHT22;28937;51.160;4.146;2023-02-28T09:49:52;8.30;65.30
43346;DHT22;28937;51.160;4.146;2023-02-28T09:52:29;8.30;64.40
43346;DHT22;28937;51.160;4.146;2023-02-28T09:55:18;8.30;65.60
43346;DHT22;28937;51.160;4.146;2023-02-28T09:57:42;8.30;66.00
43346;DHT22;28937;51.160;4.146;2023-02-28T10:05:38;8.40;65.50
43346;DHT22;28937;51.160;4.146;2023-02-28T10:08:13;8.40;66.30
43346;DHT22;28937;51.160;4.146;2023-02-28T10:13:20;8.50;65.70
43346;DHT22;28937;51.160;4.146;2023-02-28T10:15:51;8.50;65.60
43346;DHT22;28937;51.160;4.146;2023-02-28T10:18:22;8.50;65.80
43346;DHT22;28937;51.160;4.146;2023-02-28T10:20:50;8.50;65.70
43346;DHT22;28937;51.160;4.146;2023-02-28T10:23:45;8.50;65.00
43346;DHT22;28937;51.160;4.146;2023-02-28T10:26:16;8.60;66.90
43346;DHT22;28937;51.160;4.146;2023-02-28T10:28:42;8.50;65.50
43346;DHT22;28937;51.160;4.146;2023-02-28T10:31:14;8.60;66.30
43346;DHT22;28937;51.160;4.146;2023-02-28T10:33:42;8.60;66.90
43346;DHT22;28937;51.160;4.146;2023-02-28T10:36:13;8.50;69.80
43346;DHT22;28937;51.160;4.146;2023-02-28T10:38:40;8.60;66.60
43346;DHT22;28937;51.160;4.146;2023-02-28T10:41:10;8.60;67.30
43346;DHT22;28937;51.160;4.146;2023-02-28T10:43:38;8.60;67.70
43346;DHT22;28937;51.160;4.146;2023-02-28T10:48:50;8.70;66.00
43346;DHT22;28937;51.160;4.146;2023-02-28T10:51:22;8.70;64.80
43346;DHT22;28937;51.160;4.146;2023-02-28T10:53:52;8.70;65.10
43346;DHT22;28937;51.160;4.146;2023-02-28T10:56:22;8.70;64.80
43346;DHT22;28937;51.160;4.146;2023-02-28T11:01:43;8.70;64.40
43346;DHT22;28937;51.160;4.146;2023-02-28T11:07:17;8.70;66.10
43346;DHT22;28937;51.160;4.146;2023-02-28T11:09:46;8.80;63.80
43346;DHT22;28937;51.160;4.146;2023-02-28T11:12:29;8.70;65.10
43346;DHT22;28937;51.160;4.146;2023-02-28T11:14:58;8.80;63.00
43346;DHT22;28937;51.160;4.146;2023-02-28T11:17:27;8.80;64.00
43346;DHT22;28937;51.160;4.146;2023-02-28T11:19:56;8.80;64.30
43346;DHT22;28937;51.160;4.146;2023-02-28T11:22:26;8.80;62.30
43346;DHT22;28937;51.160;4.146;2023-02-28T11:24:57;8.80;61.40
43346;DHT22;28937;51.160;4.146;2023-02-28T11:29:59;8.70;61.30
43346;DHT22;28937;51.160;4.146;2023-02-28T11:32:27;8.70;60.50
43346;DHT22;28937;51.160;4.146;2023-02-28T11:37:35;8.80;61.80
43346;DHT22;28937;51.160;4.146;2023-02-28T11:40:01;8.80;60.50
43346;DHT22;28937;51.160;4.146;2023-02-28T11:45:08;8.80;61.90
43346;DHT22;28937;51.160;4.146;2023-02-28T11:47:38;8.70;63.80
43346;DHT22;28937;51.160;4.146;2023-02-28T11:52:56;8.90;62.10
43346;DHT22;28937;51.160;4.146;2023-02-28T12:06:31;9.00;60.70
43346;DHT22;28937;51.160;4.146;2023-02-28T12:09:14;9.00;60.20
43346;DHT22;28937;51.160;4.146;2023-02-28T12:14:30;9.00;61.00
43346;DHT22;28937;51.160;4.146;2023-02-28T12:20:05;9.00;59.80
43346;DHT22;28937;51.160;4.146;2023-02-28T12:23:04;9.00;57.20
43346;DHT22;28937;51.160;4.146;2023-02-28T12:25:51;9.00;59.10
43346;DHT22;28937;51.160;4.146;2023-02-28T12:28:25;9.00;58.90
43346;DHT22;28937;51.160;4.146;2023-02-28T12:30:58;9.00;58.80
43346;DHT22;28937;51.160;4.146;2023-02-28T12:33:34;9.00;59.20
43346;DHT22;28937;51.160;4.146;2023-02-28T12:36:05;9.00;58.50
43346;DHT22;28937;51.160;4.146;2023-02-28T12:38:46;9.00;58.00
43346;DHT22;28937;51.160;4.146;2023-02-28T12:41:16;9.00;57.20
43346;DHT22;28937;51.160;4.146;2023-02-28T12:43:55;9.10;57.90
43346;DHT22;28937;51.160;4.146;2023-02-28T12:46:27;9.10;57.30
43346;DHT22;28937;51.160;4.146;2023-02-28T12:48:56;9.10;56.90
43346;DHT22;28937;51.160;4.146;2023-02-28T12:51:24;9.10;56.70
43346;DHT22;28937;51.160;4.146;2023-02-28T12:59:45;9.10;57.40
43346;DHT22;28937;51.160;4.146;2023-02-28T13:02:50;9.20;56.70
43346;DHT22;28937;51.160;4.146;2023-02-28T13:10:45;9.10;56.50
43346;DHT22;28937;51.160;4.146;2023-02-28T13:13:15;9.10;55.40
43346;DHT22;28937;51.160;4.146;2023-02-28T13:18:44;9.10;56.50
43346;DHT22;28937;51.160;4.146;2023-02-28T13:24:08;9.10;57.60
43346;DHT22;28937;51.160;4.146;2023-02-28T13:34:37;9.10;56.20
43346;DHT22;28937;51.160;4.146;2023-02-28T13:39:55;9.10;56.90
43346;DHT22;28937;51.160;4.146;2023-02-28T13:42:34;9.20;56.80
43346;DHT22;28937;51.160;4.146;2023-02-28T13:47:33;9.10;56.00
43346;DHT22;28937;51.160;4.146;2023-02-28T13:50:21;9.10;56.10
43346;DHT22;28937;51.160;4.146;2023-02-28T13:53:11;9.20;56.30
43346;DHT22;28937;51.160;4.146;2023-02-28T14:06:40;9.20;56.60
43346;DHT22;28937;51.160;4.146;2023-02-28T14:11:44;9.10;56.10
43346;DHT22;28937;51.160;4.146;2023-02-28T14:17:03;9.20;57.20
43346;DHT22;28937;51.160;4.146;2023-02-28T14:19:32;9.20;55.90
43346;DHT22;28937;51.160;4.146;2023-02-28T14:27:50;9.20;57.20
43346;DHT22;28937;51.160;4.146;2023-02-28T14:30:51;9.20;56.90
43346;DHT22;28937;51.160;4.146;2023-02-28T14:33:35;9.20;56.00
43346;DHT22;28937;51.160;4.146;2023-02-28T14:36:20;9.20;57.10
43346;DHT22;28937;51.160;4.146;2023-02-28T14:38:52;9.20;56.80
43346;DHT22;28937;51.160;4.146;2023-02-28T14:41:40;9.20;56.50
43346;DHT22;28937;51.160;4.146;2023-02-28T14:46:44;9.20;55.70
43346;DHT22;28937;51.160;4.146;2023-02-28T14:49:24;9.10;55.90
43346;DHT22;28937;51.160;4.146;2023-02-28T14:54:29;9.20;56.20
43346;DHT22;28937;51.160;4.146;2023-02-28T14:56:55;9.20;57.00
43346;DHT22;28937;51.160;4.146;2023-02-28T14:59:30;9.20;57.90
43346;DHT22;28937;51.160;4.146;2023-02-28T15:05:47;9.40;57.00
43346;DHT22;28937;51.160;4.146;2023-02-28T15:07:46;9.30;56.70
43346;DHT22;28937;51.160;4.146;2023-02-28T15:10:21;9.30;56.70
43346;DHT22;28937;51.160;4.146;2023-02-28T15:15:55;9.30;58.10
43346;DHT22;28937;51.160;4.146;2023-02-28T15:18:30;9.30;58.00
43346;DHT22;28937;51.160;4.146;2023-02-28T15:20:59;9.30;57.90
43346;DHT22;28937;51.160;4.146;2023-02-28T15:23:27;9.30;58.00
43346;DHT22;28937;51.160;4.146;2023-02-28T15:25:54;9.30;57.70
43346;DHT22;28937;51.160;4.146;2023-02-28T15:28:22;9.30;57.60
43346;DHT22;28937;51.160;4.146;2023-02-28T15:31:00;9.40;57.80
43346;DHT22;28937;51.160;4.146;2023-02-28T15:33:31;9.40;57.70
43346;DHT22;28937;51.160;4.146;2023-02-28T15:36:13;9.40;58.00
43346;DHT22;28937;51.160;4.146;2023-02-28T15:38:39;9.40;57.80
43346;DHT22;28937;51.160;4.146;2023-02-28T15:41:04;9.30;58.80
43346;DHT22;28937;51.160;4.146;2023-02-28T15:43:37;9.40;57.70
43346;DHT22;28937;51.160;4.146;2023-02-28T15:46:11;9.40;57.40
43346;DHT22;28937;51.160;4.146;2023-02-28T15:48:45;9.40;57.20
43346;DHT22;28937;51.160;4.146;2023-02-28T15:51:18;9.40;58.50
43346;DHT22;28937;51.160;4.146;2023-02-28T15:53:47;9.40;57.50
43346;DHT22;28937;51.160;4.146;2023-02-28T15:56:23;9.40;58.00
43346;DHT22;28937;51.160;4.146;2023-02-28T15:58:53;9.40;57.60
43346;DHT22;28937;51.160;4.146;2023-02-28T16:01:27;9.40;58.30
43346;DHT22;28937;51.160;4.146;2023-02-28T16:03:59;9.40;58.30
43346;DHT22;28937;51.160;4.146;2023-02-28T16:08:59;9.40;59.80
43346;DHT22;28937;51.160;4.146;2023-02-28T16:11:25;9.40;59.60
43346;DHT22;28937;51.160;4.146;2023-02-28T16:13:52;9.50;59.20
43346;DHT22;28937;51.160;4.146;2023-02-28T16:16:23;9.50;58.90
43346;DHT22;28937;51.160;4.146;2023-02-28T16:18:50;9.50;59.50
43346;DHT22;28937;51.160;4.146;2023-02-28T16:21:17;9.50;59.20
43346;DHT22;28937;51.160;4.146;2023-02-28T16:23:42;9.50;60.20
43346;DHT22;28937;51.160;4.146;2023-02-28T16:26:16;9.50;58.90
43346;DHT22;28937;51.160;4.146;2023-02-28T16:28:43;9.50;58.90
43346;DHT22;28937;51.160;4.146;2023-02-28T16:31:11;9.50;59.30
43346;DHT22;28937;51.160;4.146;2023-02-28T16:33:42;9.50;59.10
43346;DHT22;28937;51.160;4.146;2023-02-28T16:36:20;9.50;59.30
43346;DHT22;28937;51.160;4.146;2023-02-28T16:38:47;9.50;59.50
43346;DHT22;28937;51.160;4.146;2023-02-28T16:41:17;9.50;59.30
43346;DHT22;28937;51.160;4.146;2023-02-28T16:43:46;9.50;59.50
43346;DHT22;28937;51.160;4.146;2023-02-28T16:46:12;9.50;60.00
43346;DHT22;28937;51.160;4.146;2023-02-28T16:48:39;9.40;60.50
43346;DHT22;28937;51.160;4.146;2023-02-28T16:51:08;9.40;59.80
43346;DHT22;28937;51.160;4.146;2023-02-28T16:53:36;9.40;59.70
43346;DHT22;28937;51.160;4.146;2023-02-28T16:56:01;9.40;59.50
43346;DHT22;28937;51.160;4.146;2023-02-28T16:58:27;9.40;59.20
43346;DHT22;28937;51.160;4.146;2023-02-28T17:00:53;9.40;59.20
43346;DHT22;28937;51.160;4.146;2023-02-28T17:03:27;9.40;59.40
43346;DHT22;28937;51.160;4.146;2023-02-28T17:05:52;9.40;60.20
43346;DHT22;28937;51.160;4.146;2023-02-28T17:08:18;9.30;60.30
43346;DHT22;28937;51.160;4.146;2023-02-28T17:10:45;9.30;60.20
43346;DHT22;28937;51.160;4.146;2023-02-28T17:13:11;9.30;60.10
43346;DHT22;28937;51.160;4.146;2023-02-28T17:15:37;9.30;60.40
43346;DHT22;28937;51.160;4.146;2023-02-28T17:18:04;9.30;59.90
43346;DHT22;28937;51.160;4.146;2023-02-28T17:20:30;9.30;60.30
43346;DHT22;28937;51.160;4.146;2023-02-28T17:22:56;9.30;59.70
43346;DHT22;28937;51.160;4.146;2023-02-28T17:25:23;9.30;60.40
43346;DHT22;28937;51.160;4.146;2023-02-28T17:27:49;9.30;60.60
43346;DHT22;28937;51.160;4.146;2023-02-28T17:30:18;9.30;60.90
43346;DHT22;28937;51.160;4.146;2023-02-28T17:32:44;9.30;60.70
43346;DHT22;28937;51.160;4.146;2023-02-28T17:35:10;9.30;60.10
43346;DHT22;28937;51.160;4.146;2023-02-28T17:37:35;9.30;61.00
43346;DHT22;28937;51.160;4.146;2023-02-28T17:40:02;9.30;60.70
43346;DHT22;28937;51.160;4.146;2023-02-28T17:42:28;9.20;61.00
43346;DHT22;28937;51.160;4.146;2023-02-28T17:44:53;9.20;61.70
43346;DHT22;28937;51.160;4.146;2023-02-28T17:47:19;9.30;62.20
43346;DHT22;28937;51.160;4.146;2023-02-28T17:49:44;9.30;62.10
43346;DHT22;28937;51.160;4.146;2023-02-28T17:52:10;9.20;62.80
43346;DHT22;28937;51.160;4.146;2023-02-28T17:54:36;9.30;63.00
43346;DHT22;28937;51.160;4.146;2023-02-28T17:57:01;9.30;63.70
43346;DHT22;28937;51.160;4.146;2023-02-28T17:59:27;9.30;63.50
43346;DHT22;28937;51.160;4.146;2023-02-28T18:02:02;9.30;63.60
43346;DHT22;28937;51.160;4.146;2023-02-28T18:04:29;9.30;63.20
43346;DHT22;28937;51.160;4.146;2023-02-28T18:06:54;9.20;63.20
43346;DHT22;28937;51.160;4.146;2023-02-28T18:09:25;9.30;63.30
43346;DHT22;28937;51.160;4.146;2023-02-28T18:11:52;9.20;63.50
43346;DHT22;28937;51.160;4.146;2023-02-28T18:14:19;9.20;63.30